sensor_id;sensor_type;location;lat;lon;timestamp;P1;durP1;ratioP1;P2;durP2;ratioP2
45522;SDS011;31254;51.680;5.394;2022-11-03T00:02:11;8.90;;;2.20;;
45522;SDS011;31254;51.680;5.394;2022-11-03T00:04:38;11.02;;;2.15;;
45522;SDS011;31254;51.680;5.394;2022-11-03T00:07:08;11.95;;;1.90;;
45522;SDS011;31254;51.680;5.394;2022-11-03T00:09:37;13.70;;;2.42;;
45522;SDS011;31254;51.680;5.394;2022-11-03T00:12:04;12.95;;;2.25;;
45522;SDS011;31254;51.680;5.394;2022-11-03T00:14:30;15.30;;;2.15;;
45522;SDS011;31254;51.680;5.394;2022-11-03T00:16:57;9.25;;;2.42;;
45522;SDS011;31254;51.680;5.394;2022-11-03T00:19:23;17.20;;;2.88;;
45522;SDS011;31254;51.680;5.394;2022-11-03T00:21:50;12.30;;;2.10;;
45522;SDS011;31254;51.680;5.394;2022-11-03T00:24:17;11.88;;;2.15;;
45522;SDS011;31254;51.680;5.394;2022-11-03T00:26:44;12.35;;;2.08;;
45522;SDS011;31254;51.680;5.394;2022-11-03T00:29:13;10.05;;;1.77;;
45522;SDS011;31254;51.680;5.394;2022-11-03T00:31:42;14.50;;;2.47;;
45522;SDS011;31254;51.680;5.394;2022-11-03T00:34:09;17.35;;;2.20;;
45522;SDS011;31254;51.680;5.394;2022-11-03T00:36:37;11.70;;;2.47;;
45522;SDS011;31254;51.680;5.394;2022-11-03T00:39:08;13.23;;;2.53;;
45522;SDS011;31254;51.680;5.394;2022-11-03T00:41:38;9.93;;;2.40;;
45522;SDS011;31254;51.680;5.394;2022-11-03T00:44:05;13.05;;;2.05;;
45522;SDS011;31254;51.680;5.394;2022-11-03T00:46:35;15.15;;;2.72;;
45522;SDS011;31254;51.680;5.394;2022-11-03T00:49:02;13.88;;;2.22;;
45522;SDS011;31254;51.680;5.394;2022-11-03T00:51:32;12.70;;;2.53;;
45522;SDS011;31254;51.680;5.394;2022-11-03T00:54:03;13.73;;;2.10;;
45522;SDS011;31254;51.680;5.394;2022-11-03T00:56:32;9.55;;;2.13;;
45522;SDS011;31254;51.680;5.394;2022-11-03T00:59:03;12.38;;;2.70;;
45522;SDS011;31254;51.680;5.394;2022-11-03T01:01:31;9.05;;;2.17;;
45522;SDS011;31254;51.680;5.394;2022-11-03T01:04:06;9.95;;;2.00;;
45522;SDS011;31254;51.680;5.394;2022-11-03T01:06:53;10.65;;;2.20;;
45522;SDS011;31254;51.680;5.394;2022-11-03T01:11:58;12.60;;;2.20;;
45522;SDS011;31254;51.680;5.394;2022-11-03T01:14:43;10.45;;;1.98;;
45522;SDS011;31254;51.680;5.394;2022-11-03T01:17:22;10.02;;;1.65;;
45522;SDS011;31254;51.680;5.394;2022-11-03T01:19:50;9.07;;;1.88;;
45522;SDS011;31254;51.680;5.394;2022-11-03T01:22:19;13.80;;;2.25;;
45522;SDS011;31254;51.680;5.394;2022-11-03T01:24:47;14.07;;;1.85;;
45522;SDS011;31254;51.680;5.394;2022-11-03T01:27:15;9.05;;;2.30;;
45522;SDS011;31254;51.680;5.394;2022-11-03T01:29:44;10.77;;;2.53;;
45522;SDS011;31254;51.680;5.394;2022-11-03T01:32:10;19.67;;;2.40;;
45522;SDS011;31254;51.680;5.394;2022-11-03T01:34:39;14.90;;;2.33;;
45522;SDS011;31254;51.680;5.394;2022-11-03T01:37:06;11.85;;;2.22;;
45522;SDS011;31254;51.680;5.394;2022-11-03T01:39:33;11.20;;;2.08;;
45522;SDS011;31254;51.680;5.394;2022-11-03T01:42:02;12.63;;;2.30;;
45522;SDS011;31254;51.680;5.394;2022-11-03T01:44:30;9.77;;;1.55;;
45522;SDS011;31254;51.680;5.394;2022-11-03T01:49:59;17.10;;;2.25;;
45522;SDS011;31254;51.680;5.394;2022-11-03T01:52:27;10.63;;;2.15;;
45522;SDS011;31254;51.680;5.394;2022-11-03T01:55:06;12.45;;;2.15;;
45522;SDS011;31254;51.680;5.394;2022-11-03T01:57:37;11.48;;;2.05;;
45522;SDS011;31254;51.680;5.394;2022-11-03T02:00:14;11.23;;;2.15;;
45522;SDS011;31254;51.680;5.394;2022-11-03T02:02:41;13.07;;;1.80;;
45522;SDS011;31254;51.680;5.394;2022-11-03T02:05:08;13.80;;;2.00;;
45522;SDS011;31254;51.680;5.394;2022-11-03T02:07:39;7.90;;;1.50;;
45522;SDS011;31254;51.680;5.394;2022-11-03T02:10:29;10.50;;;2.10;;
45522;SDS011;31254;51.680;5.394;2022-11-03T02:12:55;14.32;;;2.00;;
45522;SDS011;31254;51.680;5.394;2022-11-03T02:15:22;14.13;;;2.28;;
45522;SDS011;31254;51.680;5.394;2022-11-03T02:17:50;13.90;;;2.00;;
45522;SDS011;31254;51.680;5.394;2022-11-03T02:20:23;11.32;;;2.33;;
45522;SDS011;31254;51.680;5.394;2022-11-03T02:28:13;8.35;;;1.98;;
45522;SDS011;31254;51.680;5.394;2022-11-03T02:36:29;14.65;;;2.15;;
45522;SDS011;31254;51.680;5.394;2022-11-03T02:39:04;14.35;;;2.10;;
45522;SDS011;31254;51.680;5.394;2022-11-03T02:41:36;10.65;;;1.73;;
45522;SDS011;31254;51.680;5.394;2022-11-03T02:44:05;13.88;;;2.00;;
45522;SDS011;31254;51.680;5.394;2022-11-03T02:46:39;9.02;;;1.70;;
45522;SDS011;31254;51.680;5.394;2022-11-03T02:49:08;9.52;;;1.83;;
45522;SDS011;31254;51.680;5.394;2022-11-03T02:51:35;10.25;;;1.88;;
45522;SDS011;31254;51.680;5.394;2022-11-03T02:56:51;10.93;;;1.83;;
45522;SDS011;31254;51.680;5.394;2022-11-03T02:59:24;11.57;;;1.85;;
45522;SDS011;31254;51.680;5.394;2022-11-03T03:01:56;9.77;;;2.13;;
45522;SDS011;31254;51.680;5.394;2022-11-03T03:04:45;9.20;;;2.40;;
45522;SDS011;31254;51.680;5.394;2022-11-03T03:07:28;9.30;;;1.88;;
45522;SDS011;31254;51.680;5.394;2022-11-03T03:12:35;12.48;;;2.17;;
45522;SDS011;31254;51.680;5.394;2022-11-03T03:15:05;11.75;;;2.13;;
45522;SDS011;31254;51.680;5.394;2022-11-03T03:20:27;14.60;;;2.28;;
45522;SDS011;31254;51.680;5.394;2022-11-03T03:22:59;15.70;;;2.03;;
45522;SDS011;31254;51.680;5.394;2022-11-03T03:25:40;11.13;;;1.90;;
45522;SDS011;31254;51.680;5.394;2022-11-03T03:28:19;13.38;;;1.98;;
45522;SDS011;31254;51.680;5.394;2022-11-03T03:30:49;9.75;;;2.00;;
45522;SDS011;31254;51.680;5.394;2022-11-03T03:33:20;6.22;;;2.08;;
45522;SDS011;31254;51.680;5.394;2022-11-03T03:35:48;14.57;;;1.95;;
45522;SDS011;31254;51.680;5.394;2022-11-03T03:38:20;10.27;;;1.92;;
45522;SDS011;31254;51.680;5.394;2022-11-03T03:40:51;11.48;;;1.75;;
45522;SDS011;31254;51.680;5.394;2022-11-03T03:43:20;5.63;;;1.77;;
45522;SDS011;31254;51.680;5.394;2022-11-03T03:45:51;7.55;;;1.88;;
45522;SDS011;31254;51.680;5.394;2022-11-03T03:48:22;12.65;;;2.10;;
45522;SDS011;31254;51.680;5.394;2022-11-03T03:50:50;9.88;;;2.47;;
45522;SDS011;31254;51.680;5.394;2022-11-03T03:53:18;13.23;;;2.10;;
45522;SDS011;31254;51.680;5.394;2022-11-03T03:55:45;16.75;;;2.13;;
45522;SDS011;31254;51.680;5.394;2022-11-03T03:58:16;8.18;;;2.28;;
45522;SDS011;31254;51.680;5.394;2022-11-03T04:00:43;9.77;;;1.80;;
45522;SDS011;31254;51.680;5.394;2022-11-03T04:03:19;14.20;;;2.15;;
45522;SDS011;31254;51.680;5.394;2022-11-03T04:05:47;13.13;;;2.25;;
45522;SDS011;31254;51.680;5.394;2022-11-03T04:08:15;10.75;;;1.95;;
45522;SDS011;31254;51.680;5.394;2022-11-03T04:10:42;8.57;;;1.88;;
45522;SDS011;31254;51.680;5.394;2022-11-03T04:13:28;9.10;;;1.88;;
45522;SDS011;31254;51.680;5.394;2022-11-03T04:16:13;7.18;;;1.75;;
45522;SDS011;31254;51.680;5.394;2022-11-03T04:18:59;11.68;;;1.75;;
45522;SDS011;31254;51.680;5.394;2022-11-03T04:21:44;10.75;;;1.90;;
45522;SDS011;31254;51.680;5.394;2022-11-03T04:24:29;9.32;;;2.10;;
45522;SDS011;31254;51.680;5.394;2022-11-03T04:27:11;8.27;;;1.88;;
45522;SDS011;31254;51.680;5.394;2022-11-03T04:29:51;10.18;;;2.00;;
45522;SDS011;31254;51.680;5.394;2022-11-03T04:32:21;7.47;;;2.03;;
45522;SDS011;31254;51.680;5.394;2022-11-03T04:34:50;11.57;;;2.05;;
45522;SDS011;31254;51.680;5.394;2022-11-03T04:37:20;10.25;;;1.92;;
45522;SDS011;31254;51.680;5.394;2022-11-03T04:39:46;10.13;;;1.67;;
45522;SDS011;31254;51.680;5.394;2022-11-03T04:42:17;9.13;;;2.13;;
45522;SDS011;31254;51.680;5.394;2022-11-03T04:44:47;11.88;;;2.35;;
45522;SDS011;31254;51.680;5.394;2022-11-03T04:47:15;17.80;;;2.00;;
45522;SDS011;31254;51.680;5.394;2022-11-03T04:49:46;13.75;;;1.92;;
45522;SDS011;31254;51.680;5.394;2022-11-03T04:52:15;10.48;;;2.13;;
45522;SDS011;31254;51.680;5.394;2022-11-03T04:54:45;11.35;;;2.13;;
45522;SDS011;31254;51.680;5.394;2022-11-03T04:57:14;14.68;;;1.98;;
45522;SDS011;31254;51.680;5.394;2022-11-03T04:59:42;10.95;;;1.88;;
45522;SDS011;31254;51.680;5.394;2022-11-03T05:02:13;11.10;;;2.05;;
45522;SDS011;31254;51.680;5.394;2022-11-03T05:04:41;11.40;;;1.75;;
45522;SDS011;31254;51.680;5.394;2022-11-03T05:09:59;10.48;;;1.88;;
45522;SDS011;31254;51.680;5.394;2022-11-03T05:12:29;11.60;;;1.98;;
45522;SDS011;31254;51.680;5.394;2022-11-03T05:14:56;12.85;;;2.38;;
45522;SDS011;31254;51.680;5.394;2022-11-03T05:17:25;9.50;;;1.88;;
45522;SDS011;31254;51.680;5.394;2022-11-03T05:19:55;6.80;;;1.70;;
45522;SDS011;31254;51.680;5.394;2022-11-03T05:22:25;11.02;;;2.22;;
45522;SDS011;31254;51.680;5.394;2022-11-03T05:24:59;6.50;;;1.80;;
45522;SDS011;31254;51.680;5.394;2022-11-03T05:27:50;13.55;;;2.00;;
45522;SDS011;31254;51.680;5.394;2022-11-03T05:30:16;8.20;;;1.83;;
45522;SDS011;31254;51.680;5.394;2022-11-03T05:32:43;11.50;;;2.38;;
45522;SDS011;31254;51.680;5.394;2022-11-03T05:35:22;8.32;;;2.45;;
45522;SDS011;31254;51.680;5.394;2022-11-03T05:37:49;9.98;;;1.80;;
45522;SDS011;31254;51.680;5.394;2022-11-03T05:40:20;9.95;;;1.90;;
45522;SDS011;31254;51.680;5.394;2022-11-03T05:42:50;9.98;;;2.03;;
45522;SDS011;31254;51.680;5.394;2022-11-03T05:45:21;9.10;;;1.95;;
45522;SDS011;31254;51.680;5.394;2022-11-03T05:47:53;10.77;;;1.98;;
45522;SDS011;31254;51.680;5.394;2022-11-03T05:50:27;12.27;;;1.80;;
45522;SDS011;31254;51.680;5.394;2022-11-03T05:52:57;9.30;;;2.20;;
45522;SDS011;31254;51.680;5.394;2022-11-03T05:55:29;8.52;;;2.00;;
45522;SDS011;31254;51.680;5.394;2022-11-03T05:58:04;9.75;;;1.75;;
45522;SDS011;31254;51.680;5.394;2022-11-03T06:00:44;12.52;;;2.22;;
45522;SDS011;31254;51.680;5.394;2022-11-03T06:03:18;8.15;;;2.03;;
45522;SDS011;31254;51.680;5.394;2022-11-03T06:05:52;7.28;;;1.95;;
45522;SDS011;31254;51.680;5.394;2022-11-03T06:08:23;7.88;;;1.70;;
45522;SDS011;31254;51.680;5.394;2022-11-03T06:10:56;11.55;;;2.15;;
45522;SDS011;31254;51.680;5.394;2022-11-03T06:13:25;8.45;;;1.95;;
45522;SDS011;31254;51.680;5.394;2022-11-03T06:15:58;7.43;;;1.80;;
45522;SDS011;31254;51.680;5.394;2022-11-03T06:18:32;11.98;;;1.92;;
45522;SDS011;31254;51.680;5.394;2022-11-03T06:21:04;6.78;;;1.83;;
45522;SDS011;31254;51.680;5.394;2022-11-03T06:23:38;9.50;;;2.13;;
45522;SDS011;31254;51.680;5.394;2022-11-03T06:26:25;12.48;;;1.67;;
45522;SDS011;31254;51.680;5.394;2022-11-03T06:28:53;8.35;;;2.13;;
45522;SDS011;31254;51.680;5.394;2022-11-03T06:31:27;7.22;;;1.90;;
45522;SDS011;31254;51.680;5.394;2022-11-03T06:33:56;9.77;;;2.17;;
45522;SDS011;31254;51.680;5.394;2022-11-03T06:36:24;13.90;;;2.05;;
45522;SDS011;31254;51.680;5.394;2022-11-03T06:38:56;8.75;;;1.83;;
45522;SDS011;31254;51.680;5.394;2022-11-03T06:41:27;8.88;;;2.17;;
45522;SDS011;31254;51.680;5.394;2022-11-03T06:43:56;9.30;;;1.73;;
45522;SDS011;31254;51.680;5.394;2022-11-03T06:46:24;9.95;;;1.83;;
45522;SDS011;31254;51.680;5.394;2022-11-03T06:48:52;10.05;;;2.15;;
45522;SDS011;31254;51.680;5.394;2022-11-03T06:51:22;10.85;;;1.70;;
45522;SDS011;31254;51.680;5.394;2022-11-03T06:53:52;9.20;;;1.75;;
45522;SDS011;31254;51.680;5.394;2022-11-03T06:56:21;8.63;;;2.08;;
45522;SDS011;31254;51.680;5.394;2022-11-03T06:58:51;8.50;;;2.28;;
45522;SDS011;31254;51.680;5.394;2022-11-03T07:01:23;9.65;;;2.00;;
45522;SDS011;31254;51.680;5.394;2022-11-03T07:04:01;11.45;;;1.77;;
45522;SDS011;31254;51.680;5.394;2022-11-03T07:06:37;9.25;;;2.22;;
45522;SDS011;31254;51.680;5.394;2022-11-03T07:09:04;11.85;;;2.28;;
45522;SDS011;31254;51.680;5.394;2022-11-03T07:11:38;10.10;;;2.20;;
45522;SDS011;31254;51.680;5.394;2022-11-03T07:17:04;16.08;;;2.13;;
45522;SDS011;31254;51.680;5.394;2022-11-03T07:19:39;12.68;;;2.25;;
45522;SDS011;31254;51.680;5.394;2022-11-03T07:22:13;7.13;;;2.00;;
45522;SDS011;31254;51.680;5.394;2022-11-03T07:24:45;8.35;;;1.92;;
45522;SDS011;31254;51.680;5.394;2022-11-03T07:27:15;9.35;;;1.90;;
45522;SDS011;31254;51.680;5.394;2022-11-03T07:29:50;12.75;;;1.77;;
45522;SDS011;31254;51.680;5.394;2022-11-03T07:32:23;13.75;;;2.17;;
45522;SDS011;31254;51.680;5.394;2022-11-03T07:35:01;7.95;;;1.88;;
45522;SDS011;31254;51.680;5.394;2022-11-03T07:37:36;8.60;;;1.70;;
45522;SDS011;31254;51.680;5.394;2022-11-03T07:40:04;9.07;;;2.08;;
45522;SDS011;31254;51.680;5.394;2022-11-03T07:42:37;10.27;;;2.28;;
45522;SDS011;31254;51.680;5.394;2022-11-03T07:45:29;10.55;;;2.00;;
45522;SDS011;31254;51.680;5.394;2022-11-03T07:50:48;15.32;;;2.10;;
45522;SDS011;31254;51.680;5.394;2022-11-03T07:53:39;12.65;;;1.50;;
45522;SDS011;31254;51.680;5.394;2022-11-03T07:56:18;10.85;;;1.73;;
45522;SDS011;31254;51.680;5.394;2022-11-03T07:58:48;9.73;;;2.17;;
45522;SDS011;31254;51.680;5.394;2022-11-03T08:01:27;9.50;;;1.65;;
45522;SDS011;31254;51.680;5.394;2022-11-03T08:04:03;13.10;;;2.33;;
45522;SDS011;31254;51.680;5.394;2022-11-03T08:06:35;9.98;;;2.03;;
45522;SDS011;31254;51.680;5.394;2022-11-03T08:09:04;7.80;;;1.80;;
45522;SDS011;31254;51.680;5.394;2022-11-03T08:11:31;6.45;;;1.80;;
45522;SDS011;31254;51.680;5.394;2022-11-03T08:13:59;12.50;;;2.33;;
45522;SDS011;31254;51.680;5.394;2022-11-03T08:16:28;13.10;;;1.88;;
45522;SDS011;31254;51.680;5.394;2022-11-03T08:18:57;11.13;;;1.98;;
45522;SDS011;31254;51.680;5.394;2022-11-03T08:21:24;11.13;;;3.05;;
45522;SDS011;31254;51.680;5.394;2022-11-03T08:23:51;10.80;;;3.33;;
45522;SDS011;31254;51.680;5.394;2022-11-03T08:26:17;18.25;;;3.92;;
45522;SDS011;31254;51.680;5.394;2022-11-03T08:28:44;15.55;;;3.70;;
45522;SDS011;31254;51.680;5.394;2022-11-03T08:31:11;12.90;;;4.43;;
45522;SDS011;31254;51.680;5.394;2022-11-03T08:33:38;13.00;;;4.07;;
45522;SDS011;31254;51.680;5.394;2022-11-03T08:36:08;11.55;;;3.55;;
45522;SDS011;31254;51.680;5.394;2022-11-03T08:38:37;14.48;;;4.22;;
45522;SDS011;31254;51.680;5.394;2022-11-03T08:41:06;9.00;;;3.03;;
45522;SDS011;31254;51.680;5.394;2022-11-03T08:43:33;10.95;;;2.92;;
45522;SDS011;31254;51.680;5.394;2022-11-03T08:46:00;14.48;;;2.42;;
45522;SDS011;31254;51.680;5.394;2022-11-03T08:48:38;8.40;;;2.25;;
45522;SDS011;31254;51.680;5.394;2022-11-03T08:51:05;11.55;;;2.20;;
45522;SDS011;31254;51.680;5.394;2022-11-03T08:53:33;13.93;;;2.17;;
45522;SDS011;31254;51.680;5.394;2022-11-03T08:56:04;9.45;;;1.77;;
45522;SDS011;31254;51.680;5.394;2022-11-03T08:58:37;10.10;;;1.95;;
45522;SDS011;31254;51.680;5.394;2022-11-03T09:01:04;10.02;;;2.33;;
45522;SDS011;31254;51.680;5.394;2022-11-03T09:03:31;10.35;;;1.70;;
45522;SDS011;31254;51.680;5.394;2022-11-03T09:05:57;8.60;;;1.63;;
45522;SDS011;31254;51.680;5.394;2022-11-03T09:08:24;6.82;;;1.77;;
45522;SDS011;31254;51.680;5.394;2022-11-03T09:11:10;8.13;;;1.95;;
45522;SDS011;31254;51.680;5.394;2022-11-03T09:13:37;13.63;;;2.38;;
45522;SDS011;31254;51.680;5.394;2022-11-03T09:16:04;6.57;;;1.52;;
45522;SDS011;31254;51.680;5.394;2022-11-03T09:18:30;10.07;;;1.73;;
45522;SDS011;31254;51.680;5.394;2022-11-03T09:20:59;10.18;;;2.10;;
45522;SDS011;31254;51.680;5.394;2022-11-03T09:23:25;8.93;;;1.83;;
45522;SDS011;31254;51.680;5.394;2022-11-03T09:25:54;12.77;;;2.13;;
45522;SDS011;31254;51.680;5.394;2022-11-03T09:28:21;10.68;;;1.88;;
45522;SDS011;31254;51.680;5.394;2022-11-03T09:30:48;8.18;;;1.65;;
45522;SDS011;31254;51.680;5.394;2022-11-03T09:33:14;7.68;;;2.00;;
45522;SDS011;31254;51.680;5.394;2022-11-03T09:35:41;4.95;;;1.52;;
45522;SDS011;31254;51.680;5.394;2022-11-03T09:38:08;10.25;;;2.13;;
45522;SDS011;31254;51.680;5.394;2022-11-03T09:40:35;7.85;;;1.95;;
45522;SDS011;31254;51.680;5.394;2022-11-03T09:43:02;5.80;;;2.08;;
45522;SDS011;31254;51.680;5.394;2022-11-03T09:45:31;4.70;;;1.42;;
45522;SDS011;31254;51.680;5.394;2022-11-03T09:47:58;6.20;;;1.98;;
45522;SDS011;31254;51.680;5.394;2022-11-03T09:50:24;6.55;;;1.92;;
45522;SDS011;31254;51.680;5.394;2022-11-03T09:52:51;15.45;;;1.80;;
45522;SDS011;31254;51.680;5.394;2022-11-03T09:55:25;9.10;;;1.48;;
45522;SDS011;31254;51.680;5.394;2022-11-03T09:57:56;9.65;;;1.65;;
45522;SDS011;31254;51.680;5.394;2022-11-03T10:00:25;6.60;;;1.50;;
45522;SDS011;31254;51.680;5.394;2022-11-03T10:02:54;9.05;;;1.52;;
45522;SDS011;31254;51.680;5.394;2022-11-03T10:05:22;8.20;;;1.83;;
45522;SDS011;31254;51.680;5.394;2022-11-03T10:07:55;7.20;;;1.67;;
45522;SDS011;31254;51.680;5.394;2022-11-03T10:10:24;10.32;;;1.98;;
45522;SDS011;31254;51.680;5.394;2022-11-03T10:12:51;8.48;;;1.80;;
45522;SDS011;31254;51.680;5.394;2022-11-03T10:15:21;4.55;;;1.60;;
45522;SDS011;31254;51.680;5.394;2022-11-03T10:17:49;10.07;;;1.80;;
45522;SDS011;31254;51.680;5.394;2022-11-03T10:20:19;4.30;;;1.80;;
45522;SDS011;31254;51.680;5.394;2022-11-03T10:22:49;7.40;;;1.55;;
45522;SDS011;31254;51.680;5.394;2022-11-03T10:25:28;8.38;;;1.90;;
45522;SDS011;31254;51.680;5.394;2022-11-03T10:28:18;11.33;;;2.50;;
45522;SDS011;31254;51.680;5.394;2022-11-03T10:33:39;5.30;;;1.45;;
45522;SDS011;31254;51.680;5.394;2022-11-03T10:38:42;8.25;;;1.58;;
45522;SDS011;31254;51.680;5.394;2022-11-03T10:41:10;8.30;;;1.83;;
45522;SDS011;31254;51.680;5.394;2022-11-03T10:43:39;6.10;;;1.65;;
45522;SDS011;31254;51.680;5.394;2022-11-03T10:46:18;5.93;;;1.58;;
45522;SDS011;31254;51.680;5.394;2022-11-03T10:49:14;7.13;;;1.50;;
45522;SDS011;31254;51.680;5.394;2022-11-03T10:51:43;6.97;;;1.58;;
45522;SDS011;31254;51.680;5.394;2022-11-03T10:54:13;10.77;;;1.60;;
45522;SDS011;31254;51.680;5.394;2022-11-03T10:56:42;8.98;;;1.42;;
45522;SDS011;31254;51.680;5.394;2022-11-03T10:59:15;7.93;;;1.42;;
45522;SDS011;31254;51.680;5.394;2022-11-03T11:01:57;12.68;;;2.28;;
45522;SDS011;31254;51.680;5.394;2022-11-03T11:04:27;7.07;;;1.70;;
45522;SDS011;31254;51.680;5.394;2022-11-03T11:06:56;10.48;;;1.90;;
45522;SDS011;31254;51.680;5.394;2022-11-03T11:09:23;8.35;;;1.80;;
45522;SDS011;31254;51.680;5.394;2022-11-03T11:12:02;9.52;;;1.90;;
45522;SDS011;31254;51.680;5.394;2022-11-03T11:17:00;9.80;;;1.75;;
45522;SDS011;31254;51.680;5.394;2022-11-03T11:19:27;7.60;;;1.80;;
45522;SDS011;31254;51.680;5.394;2022-11-03T11:22:20;9.90;;;1.60;;
45522;SDS011;31254;51.680;5.394;2022-11-03T11:29:59;10.18;;;1.90;;
45522;SDS011;31254;51.680;5.394;2022-11-03T11:37:47;6.32;;;1.27;;
45522;SDS011;31254;51.680;5.394;2022-11-03T11:48:37;4.93;;;1.45;;
45522;SDS011;31254;51.680;5.394;2022-11-03T11:51:09;10.20;;;1.67;;
45522;SDS011;31254;51.680;5.394;2022-11-03T11:53:40;6.10;;;1.60;;
45522;SDS011;31254;51.680;5.394;2022-11-03T11:56:08;7.13;;;1.60;;
45522;SDS011;31254;51.680;5.394;2022-11-03T11:58:42;9.95;;;1.55;;
45522;SDS011;31254;51.680;5.394;2022-11-03T12:01:35;5.40;;;1.38;;
45522;SDS011;31254;51.680;5.394;2022-11-03T12:06:40;4.85;;;1.30;;
45522;SDS011;31254;51.680;5.394;2022-11-03T12:09:24;7.93;;;1.35;;
45522;SDS011;31254;51.680;5.394;2022-11-03T12:11:53;8.05;;;1.42;;
45522;SDS011;31254;51.680;5.394;2022-11-03T12:19:44;9.00;;;1.20;;
45522;SDS011;31254;51.680;5.394;2022-11-03T12:24:55;5.50;;;1.30;;
45522;SDS011;31254;51.680;5.394;2022-11-03T12:29:53;9.30;;;1.40;;
45522;SDS011;31254;51.680;5.394;2022-11-03T12:32:24;10.43;;;1.70;;
45522;SDS011;31254;51.680;5.394;2022-11-03T12:35:00;6.20;;;1.50;;
45522;SDS011;31254;51.680;5.394;2022-11-03T12:37:30;7.28;;;1.80;;
45522;SDS011;31254;51.680;5.394;2022-11-03T12:39:57;6.80;;;1.48;;
45522;SDS011;31254;51.680;5.394;2022-11-03T12:42:24;5.18;;;1.33;;
45522;SDS011;31254;51.680;5.394;2022-11-03T12:44:51;5.53;;;1.25;;
45522;SDS011;31254;51.680;5.394;2022-11-03T12:47:18;4.03;;;1.27;;
45522;SDS011;31254;51.680;5.394;2022-11-03T12:49:45;4.82;;;1.25;;
45522;SDS011;31254;51.680;5.394;2022-11-03T12:52:12;4.55;;;1.30;;
45522;SDS011;31254;51.680;5.394;2022-11-03T12:54:39;6.97;;;1.45;;
45522;SDS011;31254;51.680;5.394;2022-11-03T12:57:05;2.58;;;0.90;;
45522;SDS011;31254;51.680;5.394;2022-11-03T12:59:32;4.43;;;1.35;;
45522;SDS011;31254;51.680;5.394;2022-11-03T13:01:58;6.47;;;1.52;;
45522;SDS011;31254;51.680;5.394;2022-11-03T13:04:28;6.07;;;1.40;;
45522;SDS011;31254;51.680;5.394;2022-11-03T13:06:55;3.78;;;1.25;;
45522;SDS011;31254;51.680;5.394;2022-11-03T13:09:22;4.65;;;1.25;;
45522;SDS011;31254;51.680;5.394;2022-11-03T13:11:48;4.90;;;1.35;;
45522;SDS011;31254;51.680;5.394;2022-11-03T13:14:33;4.03;;;1.13;;
45522;SDS011;31254;51.680;5.394;2022-11-03T13:17:00;6.90;;;1.30;;
45522;SDS011;31254;51.680;5.394;2022-11-03T13:19:29;6.20;;;1.50;;
45522;SDS011;31254;51.680;5.394;2022-11-03T13:21:55;8.43;;;1.48;;
45522;SDS011;31254;51.680;5.394;2022-11-03T13:24:22;6.22;;;1.50;;
45522;SDS011;31254;51.680;5.394;2022-11-03T13:26:48;5.03;;;1.60;;
45522;SDS011;31254;51.680;5.394;2022-11-03T13:29:15;3.97;;;1.52;;
45522;SDS011;31254;51.680;5.394;2022-11-03T13:31:44;7.30;;;1.50;;
45522;SDS011;31254;51.680;5.394;2022-11-03T13:34:10;5.88;;;1.40;;
45522;SDS011;31254;51.680;5.394;2022-11-03T13:36:37;7.28;;;1.27;;
45522;SDS011;31254;51.680;5.394;2022-11-03T13:39:04;7.00;;;1.90;;
45522;SDS011;31254;51.680;5.394;2022-11-03T13:41:30;5.53;;;1.27;;
45522;SDS011;31254;51.680;5.394;2022-11-03T13:43:57;5.22;;;1.08;;
45522;SDS011;31254;51.680;5.394;2022-11-03T13:46:23;8.15;;;1.20;;
45522;SDS011;31254;51.680;5.394;2022-11-03T13:48:50;5.55;;;1.27;;
45522;SDS011;31254;51.680;5.394;2022-11-03T13:51:39;6.15;;;1.33;;
45522;SDS011;31254;51.680;5.394;2022-11-03T13:54:05;4.68;;;1.40;;
45522;SDS011;31254;51.680;5.394;2022-11-03T13:56:52;4.07;;;1.20;;
45522;SDS011;31254;51.680;5.394;2022-11-03T13:59:38;7.10;;;1.17;;
45522;SDS011;31254;51.680;5.394;2022-11-03T14:02:08;4.03;;;1.25;;
45522;SDS011;31254;51.680;5.394;2022-11-03T14:04:55;6.30;;;1.45;;
45522;SDS011;31254;51.680;5.394;2022-11-03T14:07:22;4.25;;;1.40;;
45522;SDS011;31254;51.680;5.394;2022-11-03T14:09:48;5.65;;;1.35;;
45522;SDS011;31254;51.680;5.394;2022-11-03T14:12:17;6.68;;;1.83;;
45522;SDS011;31254;51.680;5.394;2022-11-03T14:15:04;4.65;;;1.35;;
45522;SDS011;31254;51.680;5.394;2022-11-03T14:17:32;5.80;;;1.77;;
45522;SDS011;31254;51.680;5.394;2022-11-03T14:19:59;6.60;;;1.45;;
45522;SDS011;31254;51.680;5.394;2022-11-03T14:22:30;5.75;;;1.30;;
45522;SDS011;31254;51.680;5.394;2022-11-03T14:24:57;5.50;;;1.23;;
45522;SDS011;31254;51.680;5.394;2022-11-03T14:27:24;5.10;;;1.67;;
45522;SDS011;31254;51.680;5.394;2022-11-03T14:29:51;2.47;;;1.25;;
45522;SDS011;31254;51.680;5.394;2022-11-03T14:32:18;3.80;;;1.20;;
45522;SDS011;31254;51.680;5.394;2022-11-03T14:34:45;4.40;;;1.30;;
45522;SDS011;31254;51.680;5.394;2022-11-03T14:37:13;3.50;;;1.38;;
45522;SDS011;31254;51.680;5.394;2022-11-03T14:39:40;9.93;;;1.83;;
45522;SDS011;31254;51.680;5.394;2022-11-03T14:42:08;5.65;;;1.20;;
45522;SDS011;31254;51.680;5.394;2022-11-03T14:44:41;4.35;;;1.40;;
45522;SDS011;31254;51.680;5.394;2022-11-03T14:47:11;7.75;;;1.45;;
45522;SDS011;31254;51.680;5.394;2022-11-03T14:49:40;5.75;;;1.58;;
45522;SDS011;31254;51.680;5.394;2022-11-03T14:52:06;5.10;;;1.67;;
45522;SDS011;31254;51.680;5.394;2022-11-03T14:54:33;4.15;;;1.42;;
45522;SDS011;31254;51.680;5.394;2022-11-03T14:57:03;6.18;;;1.58;;
45522;SDS011;31254;51.680;5.394;2022-11-03T14:59:31;4.10;;;1.88;;
45522;SDS011;31254;51.680;5.394;2022-11-03T15:01:57;6.68;;;1.60;;
45522;SDS011;31254;51.680;5.394;2022-11-03T15:04:24;3.97;;;1.40;;
45522;SDS011;31254;51.680;5.394;2022-11-03T15:06:52;5.60;;;1.48;;
45522;SDS011;31254;51.680;5.394;2022-11-03T15:09:18;7.82;;;1.90;;
45522;SDS011;31254;51.680;5.394;2022-11-03T15:11:45;3.88;;;1.40;;
45522;SDS011;31254;51.680;5.394;2022-11-03T15:14:12;5.32;;;1.50;;
45522;SDS011;31254;51.680;5.394;2022-11-03T15:16:39;6.10;;;1.80;;
45522;SDS011;31254;51.680;5.394;2022-11-03T15:19:06;6.53;;;1.63;;
45522;SDS011;31254;51.680;5.394;2022-11-03T15:21:33;6.95;;;1.65;;
45522;SDS011;31254;51.680;5.394;2022-11-03T15:24:00;5.93;;;1.75;;
45522;SDS011;31254;51.680;5.394;2022-11-03T15:26:46;6.30;;;1.67;;
45522;SDS011;31254;51.680;5.394;2022-11-03T15:29:13;4.68;;;1.60;;
45522;SDS011;31254;51.680;5.394;2022-11-03T15:31:40;5.30;;;1.90;;
45522;SDS011;31254;51.680;5.394;2022-11-03T15:34:13;5.40;;;1.63;;
45522;SDS011;31254;51.680;5.394;2022-11-03T15:36:40;6.03;;;1.88;;
45522;SDS011;31254;51.680;5.394;2022-11-03T15:39:07;6.10;;;1.55;;
45522;SDS011;31254;51.680;5.394;2022-11-03T15:41:35;4.22;;;1.50;;
45522;SDS011;31254;51.680;5.394;2022-11-03T15:44:02;8.27;;;1.95;;
45522;SDS011;31254;51.680;5.394;2022-11-03T15:46:28;5.13;;;2.20;;
45522;SDS011;31254;51.680;5.394;2022-11-03T15:48:55;8.43;;;2.17;;
45522;SDS011;31254;51.680;5.394;2022-11-03T15:51:23;12.93;;;2.53;;
45522;SDS011;31254;51.680;5.394;2022-11-03T15:53:49;5.78;;;2.00;;
45522;SDS011;31254;51.680;5.394;2022-11-03T15:56:23;6.32;;;1.75;;
45522;SDS011;31254;51.680;5.394;2022-11-03T15:58:50;7.10;;;2.30;;
45522;SDS011;31254;51.680;5.394;2022-11-03T16:01:16;6.05;;;2.17;;
45522;SDS011;31254;51.680;5.394;2022-11-03T16:03:43;7.57;;;2.15;;
45522;SDS011;31254;51.680;5.394;2022-11-03T16:06:10;5.78;;;2.35;;
45522;SDS011;31254;51.680;5.394;2022-11-03T16:08:38;5.85;;;2.10;;
45522;SDS011;31254;51.680;5.394;2022-11-03T16:11:05;3.85;;;2.10;;
45522;SDS011;31254;51.680;5.394;2022-11-03T16:13:31;6.00;;;2.22;;
45522;SDS011;31254;51.680;5.394;2022-11-03T16:16:00;6.97;;;2.03;;
45522;SDS011;31254;51.680;5.394;2022-11-03T16:18:28;6.95;;;2.25;;